Time;durP1;ratioP1;P1;durP2;ratioP2;P2;SDS_P1;SDS_P2;PMS_P1;PMS_P2;Temp;Humidity;BMP_temperature;BMP_pressure;BME280_temperature;BME280_humidity;BME280_pressure;Samples;Min_cycle;Max_cycle;Signal;HPM_P1;HPM_P2
2022/03/01 00:00:16;;;;;;;9.90;5.35;;;4.50;51.50;;;;;;2275476;55;20928;-64
2022/03/01 00:02:44;;;;;;;9.27;5.18;;;4.50;51.50;;;;;;2343686;55;20983;-62
2022/03/01 00:05:10;;;;;;;11.27;6.12;;;4.50;51.40;;;;;;2278260;55;21054;-64
2022/03/01 00:07:36;;;;;;;12.15;5.53;;;4.50;51.50;;;;;;2277400;55;20994;-63
2022/03/01 00:10:03;;;;;;;11.98;5.87;;;4.50;51.30;;;;;;2278277;55;20999;-62
2022/03/01 00:12:29;;;;;;;12.20;6.07;;;4.60;51.50;;;;;;2303040;55;20979;-64
2022/03/01 00:14:56;;;;;;;11.30;5.10;;;4.60;51.40;;;;;;2277917;56;21240;-64
2022/03/01 00:17:22;;;;;;;9.35;4.80;;;4.60;51.40;;;;;;2318939;55;20987;-65
2022/03/01 00:23:28;;;;;;;7.87;4.07;;;4.60;51.20;;;;;;2369046;55;20991;-63
2022/03/01 00:25:55;;;;;;;10.15;5.00;;;4.70;51.30;;;;;;2278850;56;21247;-64
2022/03/01 00:28:21;;;;;;;8.13;4.43;;;4.70;51.30;;;;;;2278373;56;20903;-63
2022/03/01 00:31:10;;;;;;;8.23;4.47;;;4.70;51.20;;;;;;2279053;55;21830;-63
2022/03/01 00:33:37;;;;;;;9.75;4.72;;;4.70;51.00;;;;;;2278089;56;20925;-63
2022/03/01 00:36:03;;;;;;;8.32;4.70;;;4.70;51.10;;;;;;2278381;55;21003;-64
2022/03/01 00:38:30;;;;;;;9.43;4.45;;;4.70;51.00;;;;;;2315454;55;21487;-62
2022/03/01 00:40:56;;;;;;;10.32;4.87;;;4.70;51.00;;;;;;2281560;55;20967;-61
2022/03/01 00:43:23;;;;;;;10.15;4.55;;;4.70;50.90;;;;;;2277260;55;20923;-63
2022/03/01 00:45:50;;;;;;;8.20;4.72;;;4.70;50.90;;;;;;2278379;56;20966;-64
2022/03/01 00:48:16;;;;;;;8.95;4.93;;;4.60;50.80;;;;;;2437545;55;21705;-63
2022/03/01 00:50:43;;;;;;;10.60;4.87;;;4.60;50.80;;;;;;2269316;55;20923;-65
2022/03/01 00:53:29;;;;;;;8.88;4.95;;;4.60;51.40;;;;;;2351398;55;20918;-64
2022/03/01 00:55:55;;;;;;;10.85;5.28;;;4.60;50.70;;;;;;2277584;55;21249;-62
2022/03/01 00:58:21;;;;;;;10.23;5.47;;;4.60;50.90;;;;;;2284351;55;21042;-62
2022/03/01 01:00:48;;;;;;;11.25;5.55;;;4.60;50.90;;;;;;2278265;56;20943;-63
2022/03/01 01:03:14;;;;;;;12.57;5.95;;;4.50;50.80;;;;;;2285496;55;21350;-64
2022/03/01 01:05:41;;;;;;;9.18;4.85;;;4.50;50.80;;;;;;2271705;55;20950;-63
2022/03/01 01:08:07;;;;;;;9.70;5.07;;;4.50;50.80;;;;;;2277691;55;21420;-62
2022/03/01 01:10:34;;;;;;;10.18;5.10;;;4.40;50.80;;;;;;2280029;55;22081;-65
2022/03/01 01:13:00;;;;;;;10.88;5.50;;;4.40;50.80;;;;;;2275624;55;20919;-61
2022/03/01 01:15:27;;;;;;;10.88;5.12;;;4.40;50.80;;;;;;2279799;55;21018;-64
2022/03/01 01:17:54;;;;;;;10.18;5.03;;;4.40;50.80;;;;;;2275737;55;20959;-62
2022/03/01 01:20:20;;;;;;;9.48;5.30;;;4.40;50.80;;;;;;2280246;55;21050;-64
2022/03/01 01:22:47;;;;;;;8.65;4.60;;;4.40;50.90;;;;;;2274712;55;21018;-65
2022/03/01 01:25:23;;;;;;;8.93;4.47;;;4.30;50.90;;;;;;2277506;55;21777;-62
2022/03/01 01:27:54;;;;;;;10.48;5.47;;;4.30;50.90;;;;;;2277668;56;20951;-65
2022/03/01 01:30:22;;;;;;;11.32;5.22;;;4.20;50.90;;;;;;2280839;56;21500;-65
2022/03/01 01:32:49;;;;;;;12.52;5.50;;;4.20;50.80;;;;;;2271723;55;20995;-64
2022/03/01 01:35:19;;;;;;;9.93;5.22;;;4.20;50.80;;;;;;2280572;55;21014;-62
2022/03/01 01:37:45;;;;;;;10.57;4.55;;;4.10;50.80;;;;;;2505491;55;21014;-64
2022/03/01 01:40:13;;;;;;;10.30;5.47;;;4.10;50.80;;;;;;2274300;55;21003;-62
2022/03/01 01:42:40;;;;;;;9.35;4.72;;;4.10;50.80;;;;;;2275511;56;21043;-64
2022/03/01 01:45:07;;;;;;;11.12;5.35;;;4.00;50.90;;;;;;2279417;55;21836;-63
2022/03/01 01:47:44;;;;;;;10.05;4.78;;;4.00;50.90;;;;;;2272692;55;20994;-64
2022/03/01 01:50:11;;;;;;;8.55;4.72;;;3.90;50.80;;;;;;2271503;56;20931;-62
2022/03/01 01:52:37;;;;;;;11.98;5.03;;;3.90;50.90;;;;;;2442578;55;21034;-63
2022/03/01 01:55:04;;;;;;;9.88;4.90;;;3.90;50.90;;;;;;2278288;55;20899;-62
2022/03/01 01:57:31;;;;;;;10.00;4.62;;;3.80;50.90;;;;;;2482597;55;20987;-62
2022/03/01 01:59:59;;;;;;;8.60;4.45;;;3.80;50.90;;;;;;2279727;56;20923;-64
2022/03/01 02:02:26;;;;;;;9.95;4.40;;;3.80;51.50;;;;;;2512924;55;20935;-63
2022/03/01 02:04:52;;;;;;;9.23;4.22;;;3.80;51.00;;;;;;2276738;55;21400;-65
2022/03/01 02:07:18;;;;;;;9.77;4.12;;;3.70;51.00;;;;;;2508293;55;21029;-63
2022/03/01 02:10:07;;;;;;;9.65;4.75;;;3.70;51.00;;;;;;2280219;55;21014;-64
2022/03/01 02:12:34;;;;;;;9.88;4.62;;;3.70;51.00;;;;;;2445293;55;21088;-62
2022/03/01 02:15:00;;;;;;;10.25;4.45;;;3.60;51.00;;;;;;2280310;56;21031;-63
2022/03/01 02:17:27;;;;;;;9.50;4.15;;;3.60;51.10;;;;;;2304203;55;20983;-62
2022/03/01 02:19:53;;;;;;;9.05;4.40;;;3.60;51.10;;;;;;2420918;55;20995;-62
2022/03/01 02:22:20;;;;;;;9.20;4.28;;;3.60;51.10;;;;;;2513258;55;21449;-63
2022/03/01 02:24:47;;;;;;;10.07;4.85;;;3.60;51.20;;;;;;2273004;56;21496;-65
2022/03/01 02:27:49;;;;;;;10.63;4.78;;;3.50;51.10;;;;;;2370869;55;20918;-63
2022/03/01 02:30:16;;;;;;;10.75;4.30;;;3.50;51.10;;;;;;2278900;56;21539;-65
2022/03/01 02:32:42;;;;;;;11.82;4.47;;;3.50;51.10;;;;;;2325148;55;20984;-61
2022/03/01 02:38:48;;;;;;;10.23;4.82;;;3.40;51.10;;;;;;2280504;56;20975;-64
2022/03/01 02:41:15;;;;;;;13.38;6.18;;;3.40;51.10;;;;;;2277073;56;21434;-64
2022/03/01 02:47:09;;;;;;;28.60;12.52;;;3.30;51.10;;;;;;2489793;55;20916;-63
2022/03/01 02:53:06;;;;;;;19.25;8.73;;;3.20;51.00;;;;;;2513342;55;20940;-62
2022/03/01 02:55:32;;;;;;;20.12;9.98;;;3.10;51.00;;;;;;2280527;56;20998;-63
2022/03/01 02:57:59;;;;;;;16.73;7.90;;;3.10;51.10;;;;;;2277841;55;21050;-63
2022/03/01 03:00:26;;;;;;;15.15;6.45;;;3.10;51.20;;;;;;2275153;55;21488;-63
2022/03/01 03:02:53;;;;;;;12.07;5.75;;;3.00;51.20;;;;;;2363739;55;20911;-66
2022/03/01 03:05:21;;;;;;;9.85;4.87;;;3.00;51.20;;;;;;2505366;55;21034;-65
2022/03/01 03:07:50;;;;;;;10.88;4.80;;;3.00;51.20;;;;;;2278687;55;20999;-65
2022/03/01 03:10:17;;;;;;;9.73;4.18;;;2.90;51.20;;;;;;2280863;56;20952;-65
2022/03/01 03:12:44;;;;;;;9.98;4.43;;;2.90;51.30;;;;;;2278390;56;20930;-63
2022/03/01 03:18:51;;;;;;;9.02;4.57;;;2.90;51.50;;;;;;2274948;56;20924;-65
2022/03/01 03:21:18;;;;;;;8.60;4.20;;;2.90;51.50;;;;;;2280113;56;21062;-63
2022/03/01 03:23:44;;;;;;;9.43;4.43;;;2.90;51.60;;;;;;2281280;55;20895;-63
2022/03/01 03:26:11;;;;;;;10.10;4.65;;;2.90;51.60;;;;;;2274540;55;20934;-62
2022/03/01 03:28:38;;;;;;;9.07;4.60;;;2.90;51.60;;;;;;2273616;55;21493;-63
2022/03/01 03:31:04;;;;;;;8.32;4.30;;;2.90;51.60;;;;;;2397526;55;1393433;-63
2022/03/01 03:33:30;;;;;;;9.68;4.78;;;2.80;51.90;;;;;;2283276;55;21095;-61
2022/03/01 03:35:57;;;;;;;9.20;4.70;;;2.80;51.60;;;;;;2282073;55;21899;-61
2022/03/01 03:41:52;;;;;;;7.70;3.90;;;2.90;51.60;;;;;;2300160;55;21620;-64
2022/03/01 03:44:22;;;;;;;7.45;4.00;;;2.80;51.50;;;;;;2281080;56;21015;-62
2022/03/01 03:46:51;;;;;;;8.73;4.30;;;2.80;51.50;;;;;;2283716;55;20908;-64
2022/03/01 03:49:17;;;;;;;6.85;3.37;;;2.80;51.60;;;;;;2287753;55;20963;-64
2022/03/01 03:52:10;;;;;;;9.52;3.80;;;2.80;51.60;;;;;;2512569;55;20924;-64
2022/03/01 03:54:39;;;;;;;8.32;3.90;;;2.80;51.60;;;;;;2279193;56;20952;-63
2022/03/01 03:57:08;;;;;;;7.78;3.10;;;2.80;51.60;;;;;;2508467;55;20999;-61
2022/03/01 03:59:43;;;;;;;8.68;3.80;;;2.70;51.50;;;;;;2446011;55;21014;-63
2022/03/01 04:02:10;;;;;;;13.32;4.95;;;2.70;51.50;;;;;;2277282;55;20957;-63
2022/03/01 04:04:36;;;;;;;9.13;3.75;;;2.70;51.50;;;;;;2280061;56;21381;-62
2022/03/01 04:07:09;;;;;;;8.50;4.28;;;2.60;51.50;;;;;;2282163;55;20939;-62
2022/03/01 04:09:35;;;;;;;8.98;4.18;;;2.60;51.50;;;;;;2505648;55;20992;-64
2022/03/01 04:12:14;;;;;;;14.75;5.78;;;2.60;51.50;;;;;;2312617;55;20952;-65
2022/03/01 04:18:08;;;;;;;47.47;18.65;;;2.50;51.40;;;;;;2513526;55;21003;-63
2022/03/01 04:20:34;;;;;;;36.35;14.85;;;2.50;51.40;;;;;;2274351;56;22000;-62
2022/03/01 04:23:02;;;;;;;32.40;13.00;;;2.50;51.50;;;;;;2507619;55;21445;-63
2022/03/01 04:25:28;;;;;;;21.33;9.93;;;2.40;51.50;;;;;;2280011;55;21099;-64
2022/03/01 04:27:55;;;;;;;17.52;8.15;;;2.40;51.50;;;;;;2380855;55;20979;-64
2022/03/01 04:30:22;;;;;;;15.57;7.05;;;2.40;51.60;;;;;;2287678;55;20933;-62
2022/03/01 04:32:50;;;;;;;12.37;5.60;;;2.30;51.50;;;;;;2277586;55;20927;-66
2022/03/01 04:35:16;;;;;;;10.23;4.30;;;2.30;51.50;;;;;;2280916;56;20995;-66
2022/03/01 04:37:43;;;;;;;8.45;3.97;;;2.30;51.50;;;;;;2505724;55;21027;-64
2022/03/01 04:40:10;;;;;;;7.18;3.60;;;2.20;51.50;;;;;;2279795;56;21047;-64
2022/03/01 04:42:36;;;;;;;8.38;3.37;;;2.20;51.50;;;;;;2279600;56;20907;-63
2022/03/01 04:48:30;;;;;;;16.12;5.35;;;2.10;51.40;;;;;;2355169;55;20935;-64
2022/03/01 04:50:58;;;;;;;16.65;5.78;;;2.10;51.40;;;;;;2258270;56;20932;-64
2022/03/01 04:53:25;;;;;;;15.80;6.12;;;2.00;51.40;;;;;;2276780;56;20924;-65
2022/03/01 04:55:54;;;;;;;11.95;5.28;;;2.00;51.40;;;;;;2320427;55;21397;-64
2022/03/01 04:58:22;;;;;;;13.98;4.95;;;2.00;51.50;;;;;;2280089;56;21031;-65
2022/03/01 05:00:48;;;;;;;12.13;4.70;;;2.00;51.50;;;;;;2280448;55;20952;-64
2022/03/01 05:03:15;;;;;;;9.50;4.45;;;1.90;51.40;;;;;;2279873;56;20938;-63
2022/03/01 05:05:42;;;;;;;14.10;5.20;;;1.80;51.40;;;;;;2279858;56;20991;-65
2022/03/01 05:08:09;;;;;;;8.95;3.87;;;1.80;51.40;;;;;;2280263;56;20994;-64
2022/03/01 05:10:35;;;;;;;10.32;3.78;;;1.80;51.50;;;;;;2280416;56;20962;-64
2022/03/01 05:13:06;;;;;;;11.57;3.95;;;1.80;51.50;;;;;;2280388;56;20971;-63
2022/03/01 05:15:32;;;;;;;7.43;3.72;;;1.70;51.50;;;;;;2279813;56;20947;-66
2022/03/01 05:17:59;;;;;;;8.48;3.97;;;1.70;51.50;;;;;;2280105;56;20991;-65
2022/03/01 05:20:26;;;;;;;8.10;3.70;;;1.70;51.60;;;;;;2280306;56;20915;-64
2022/03/01 05:22:53;;;;;;;8.23;3.55;;;1.60;51.60;;;;;;2280282;56;20919;-64
2022/03/01 05:25:20;;;;;;;7.93;3.53;;;1.60;51.60;;;;;;2279765;55;20959;-62
2022/03/01 05:27:48;;;;;;;9.13;4.30;;;1.50;51.60;;;;;;2281158;55;21015;-66
2022/03/01 05:30:14;;;;;;;10.75;4.40;;;1.50;51.70;;;;;;2286353;54;20974;-65
2022/03/01 05:32:43;;;;;;;16.02;6.00;;;1.50;51.70;;;;;;2274731;55;20974;-65
2022/03/01 05:35:13;;;;;;;14.35;5.68;;;1.50;51.80;;;;;;2283317;55;20975;-66
2022/03/01 05:37:40;;;;;;;13.48;5.30;;;1.50;51.90;;;;;;2272312;55;20967;-62
2022/03/01 05:40:07;;;;;;;11.43;5.12;;;1.40;51.90;;;;;;2279194;55;20923;-64
2022/03/01 05:42:34;;;;;;;9.65;4.97;;;1.40;51.90;;;;;;2280566;56;20923;-65
2022/03/01 05:45:00;;;;;;;12.30;5.25;;;1.40;51.90;;;;;;2289263;55;20896;-63
2022/03/01 05:47:27;;;;;;;9.98;4.95;;;1.40;52.10;;;;;;2307396;55;20942;-66
2022/03/01 05:49:54;;;;;;;11.70;5.30;;;1.40;52.20;;;;;;2276186;55;20994;-66
2022/03/01 05:52:20;;;;;;;12.55;4.85;;;1.40;52.20;;;;;;2279030;56;20967;-63
2022/03/01 05:54:46;;;;;;;10.13;5.00;;;1.30;52.00;;;;;;2279343;55;20943;-65
2022/03/01 05:57:13;;;;;;;10.90;5.00;;;1.30;52.10;;;;;;2278783;55;20943;-61
2022/03/01 05:59:40;;;;;;;15.00;5.18;;;1.30;52.10;;;;;;2367271;55;20951;-63
2022/03/01 06:02:06;;;;;;;13.02;4.87;;;1.30;52.00;;;;;;2283668;55;21130;-62
2022/03/01 06:04:34;;;;;;;10.10;4.70;;;1.30;52.00;;;;;;2276724;55;20915;-62
2022/03/01 06:07:03;;;;;;;11.25;4.90;;;1.30;52.00;;;;;;2280203;56;20970;-63
2022/03/01 06:09:29;;;;;;;13.30;5.22;;;1.30;51.90;;;;;;2279595;56;20952;-63
2022/03/01 06:11:55;;;;;;;13.48;5.82;;;1.20;51.90;;;;;;2279197;55;20946;-62
2022/03/01 06:14:21;;;;;;;11.02;4.97;;;1.20;51.90;;;;;;2280427;56;21437;-63
2022/03/01 06:16:48;;;;;;;12.85;6.12;;;1.20;51.90;;;;;;2280271;56;21003;-65
2022/03/01 06:19:14;;;;;;;12.10;5.22;;;1.10;51.90;;;;;;2280401;56;20995;-66
2022/03/01 06:21:41;;;;;;;13.48;5.78;;;1.10;51.90;;;;;;2273829;56;21053;-65
2022/03/01 06:24:07;;;;;;;14.43;6.30;;;1.10;52.00;;;;;;2257286;57;21343;-64
2022/03/01 06:26:43;;;;;;;13.27;5.65;;;1.00;51.90;;;;;;2513361;55;20936;-64
2022/03/01 06:29:09;;;;;;;14.25;6.03;;;1.00;52.10;;;;;;2258340;56;21027;-65
2022/03/01 06:31:35;;;;;;;54.55;12.18;;;1.00;52.20;;;;;;2280187;55;20955;-64
2022/03/01 06:34:01;;;;;;;33.40;10.27;;;1.00;52.20;;;;;;2271316;55;21590;-64
2022/03/01 06:36:28;;;;;;;24.48;8.73;;;1.00;52.30;;;;;;2509305;55;20947;-65
2022/03/01 06:42:23;;;;;;;16.12;6.80;;;0.90;52.40;;;;;;2509126;55;20931;-63
2022/03/01 06:44:49;;;;;;;12.45;6.00;;;0.90;52.30;;;;;;2400796;55;21008;-62
2022/03/01 06:47:16;;;;;;;20.95;8.50;;;0.90;52.40;;;;;;2272338;56;21062;-66
2022/03/01 06:49:45;;;;;;;21.98;9.88;;;0.90;52.40;;;;;;2273906;56;20923;-66
2022/03/01 06:52:14;;;;;;;30.03;9.60;;;0.90;52.50;;;;;;2281456;56;20963;-63
2022/03/01 06:54:43;;;;;;;22.87;8.98;;;0.90;52.50;;;;;;2281635;56;20992;-64
2022/03/01 06:57:09;;;;;;;21.75;8.13;;;0.90;52.60;;;;;;2278138;55;20923;-64
2022/03/01 06:59:37;;;;;;;19.70;8.43;;;0.90;52.60;;;;;;2279797;56;21866;-63
2022/03/01 07:02:03;;;;;;;19.33;7.90;;;0.90;52.70;;;;;;2280693;55;20994;-63
2022/03/01 07:04:31;;;;;;;18.73;8.20;;;1.00;52.80;;;;;;2439101;55;21003;-61
2022/03/01 07:06:58;;;;;;;18.95;7.72;;;1.00;52.80;;;;;;2280111;55;20975;-66
2022/03/01 07:09:25;;;;;;;15.88;6.93;;;1.00;52.90;;;;;;2279990;56;20963;-65
2022/03/01 07:11:51;;;;;;;15.50;7.47;;;1.00;53.50;;;;;;2271492;55;20939;-65
2022/03/01 07:14:20;;;;;;;15.70;7.20;;;1.00;53.00;;;;;;2280000;55;21842;-66
2022/03/01 07:16:46;;;;;;;14.82;6.93;;;1.00;53.70;;;;;;2279815;55;21051;-62
2022/03/01 07:19:12;;;;;;;17.87;7.55;;;1.10;53.20;;;;;;2279493;55;21006;-62
2022/03/01 07:21:39;;;;;;;16.02;6.72;;;1.10;53.20;;;;;;2270743;55;21780;-63
2022/03/01 07:24:06;;;;;;;17.52;7.32;;;1.10;53.30;;;;;;2275769;55;20954;-65
2022/03/01 07:26:32;;;;;;;17.52;7.50;;;1.20;53.40;;;;;;2280499;56;20907;-64
2022/03/01 07:28:58;;;;;;;16.65;5.97;;;1.30;53.50;;;;;;2274259;55;21437;-66
2022/03/01 07:31:26;;;;;;;14.73;6.68;;;1.30;53.50;;;;;;2277801;56;20947;-63
2022/03/01 07:33:54;;;;;;;16.00;7.32;;;1.40;53.60;;;;;;2283333;55;21015;-64
2022/03/01 07:36:20;;;;;;;13.43;6.65;;;1.40;53.60;;;;;;2304424;55;20992;-62
2022/03/01 07:38:46;;;;;;;15.68;7.82;;;1.40;53.70;;;;;;2510627;55;20964;-64
2022/03/01 07:41:15;;;;;;;14.60;7.40;;;1.50;53.80;;;;;;2278136;56;20939;-64
2022/03/01 07:43:42;;;;;;;18.85;7.28;;;1.50;53.90;;;;;;2277834;55;20907;-66
2022/03/01 07:46:11;;;;;;;13.57;6.45;;;1.60;54.00;;;;;;2277659;56;20932;-64
2022/03/01 07:48:39;;;;;;;13.62;6.15;;;1.60;54.00;;;;;;2277737;55;20958;-62
2022/03/01 07:51:06;;;;;;;10.90;5.43;;;1.70;54.10;;;;;;2274065;56;21818;-63
2022/03/01 07:53:32;;;;;;;12.63;6.00;;;1.80;54.20;;;;;;2277157;55;20983;-64
2022/03/01 07:55:59;;;;;;;15.50;5.80;;;1.80;54.30;;;;;;2297088;55;21401;-64
2022/03/01 07:58:28;;;;;;;14.27;6.78;;;1.90;54.30;;;;;;2277440;56;20988;-64
2022/03/01 08:00:56;;;;;;;12.90;6.15;;;2.00;54.40;;;;;;2278170;56;21480;-63
2022/03/01 08:03:23;;;;;;;13.73;5.82;;;2.10;54.50;;;;;;2278243;56;20935;-65
2022/03/01 08:05:52;;;;;;;13.55;6.25;;;2.10;54.50;;;;;;2275756;55;20963;-63
2022/03/01 08:08:19;;;;;;;11.75;5.87;;;2.20;54.50;;;;;;2436023;55;21328;-65
2022/03/01 08:10:49;;;;;;;13.00;5.70;;;2.30;54.60;;;;;;2277930;56;20991;-65
2022/03/01 08:13:29;;;;;;;11.32;5.53;;;2.40;54.60;;;;;;2277532;55;20962;-64
2022/03/01 08:16:20;;;;;;;14.40;5.85;;;2.40;54.60;;;;;;2276919;55;21011;-63
2022/03/01 08:18:48;;;;;;;11.38;5.45;;;2.60;54.70;;;;;;2276845;55;21019;-64
2022/03/01 08:21:33;;;;;;;12.07;5.00;;;2.70;54.80;;;;;;2454953;55;21440;-65
2022/03/01 08:23:59;;;;;;;13.32;6.05;;;2.70;54.70;;;;;;2275342;55;20946;-64
2022/03/01 08:26:26;;;;;;;14.90;6.30;;;2.80;54.80;;;;;;2276986;55;20980;-64
2022/03/01 08:28:52;;;;;;;16.83;7.12;;;2.90;54.80;;;;;;2278975;55;21018;-62
2022/03/01 08:31:18;;;;;;;13.45;6.80;;;3.00;55.00;;;;;;2277884;55;20967;-64
2022/03/01 08:33:45;;;;;;;14.90;6.97;;;3.10;55.00;;;;;;2276104;55;21767;-64
2022/03/01 08:36:13;;;;;;;15.27;7.30;;;3.20;55.00;;;;;;2277299;55;20955;-63
2022/03/01 08:38:40;;;;;;;12.75;6.50;;;3.30;55.10;;;;;;2270829;56;21084;-62
2022/03/01 08:41:26;;;;;;;12.00;6.28;;;3.40;55.20;;;;;;2276559;56;21287;-64
2022/03/01 08:43:53;;;;;;;10.55;5.55;;;3.60;55.90;;;;;;2277926;55;20954;-64
2022/03/01 08:46:20;;;;;;;8.98;5.03;;;3.80;57.40;;;;;;2278270;56;20951;-62
2022/03/01 08:48:46;;;;;;;11.77;4.70;;;4.20;59.10;;;;;;2402082;55;21340;-63
2022/03/01 08:51:31;;;;;;;9.27;5.47;;;4.70;60.70;;;;;;2272277;55;20924;-63
2022/03/01 08:57:24;;;;;;;9.45;5.62;;;6.00;62.50;;;;;;2463103;55;20967;-64
2022/03/01 08:59:52;;;;;;;9.75;5.45;;;6.70;63.20;;;;;;2324608;55;21164;-64
2022/03/01 09:02:20;;;;;;;9.40;5.95;;;7.30;63.20;;;;;;2272800;55;21641;-64
2022/03/01 09:04:47;;;;;;;10.85;6.62;;;7.80;62.70;;;;;;2276272;55;20975;-65
2022/03/01 09:07:13;;;;;;;14.32;7.37;;;8.30;61.60;;;;;;2373466;55;21006;-62
2022/03/01 09:09:40;;;;;;;11.30;7.10;;;8.70;60.20;;;;;;2259578;55;20980;-64
2022/03/01 09:12:09;;;;;;;13.25;7.35;;;9.00;59.20;;;;;;2268368;55;21789;-65
2022/03/01 09:14:36;;;;;;;11.27;7.37;;;9.20;58.00;;;;;;2436651;56;21042;-64
2022/03/01 09:17:04;;;;;;;11.95;7.50;;;9.40;57.30;;;;;;2510693;55;20935;-64
2022/03/01 09:19:31;;;;;;;12.18;6.87;;;9.50;56.50;;;;;;2341678;55;20963;-65
2022/03/01 09:21:57;;;;;;;11.75;7.32;;;9.60;55.90;;;;;;2277778;55;21319;-66
2022/03/01 09:24:23;;;;;;;11.07;7.12;;;9.60;55.60;;;;;;2294502;55;21519;-64
2022/03/01 09:26:50;;;;;;;12.43;7.10;;;9.60;55.30;;;;;;2278180;55;21483;-66
2022/03/01 09:29:18;;;;;;;13.00;7.53;;;9.60;55.30;;;;;;2278051;55;20935;-65
2022/03/01 09:31:45;;;;;;;13.55;8.20;;;9.60;55.40;;;;;;2278027;56;20943;-66
2022/03/01 09:34:12;;;;;;;12.30;7.68;;;9.60;55.60;;;;;;2277771;56;20940;-66
2022/03/01 09:36:38;;;;;;;13.55;8.57;;;9.70;56.00;;;;;;2278486;59;21722;-65
2022/03/01 09:39:05;;;;;;;11.75;7.62;;;9.80;56.60;;;;;;2271734;56;21340;-64
2022/03/01 09:41:32;;;;;;;13.50;7.78;;;10.00;56.40;;;;;;2308426;55;20974;-66
2022/03/01 09:44:01;;;;;;;11.02;7.22;;;10.30;56.70;;;;;;2271082;55;21440;-66
2022/03/01 09:46:27;;;;;;;12.57;7.72;;;10.60;56.30;;;;;;2277380;55;20987;-65
2022/03/01 09:48:54;;;;;;;11.73;6.37;;;10.80;55.80;;;;;;2277351;56;20947;-66
2022/03/01 09:51:20;;;;;;;12.07;7.65;;;11.10;55.60;;;;;;2277359;55;20958;-65
2022/03/01 09:53:48;;;;;;;11.65;7.37;;;11.30;55.60;;;;;;2273846;56;20994;-65
2022/03/01 09:59:41;;;;;;;12.82;7.28;;;11.70;54.50;;;;;;2510394;55;20936;-64
2022/03/01 10:02:08;;;;;;;11.75;7.70;;;12.00;55.30;;;;;;2277908;56;21416;-62
2022/03/01 10:04:54;;;;;;;11.27;7.57;;;12.20;55.20;;;;;;2278067;56;20939;-66
2022/03/01 10:07:32;;;;;;;11.23;7.43;;;12.40;55.00;;;;;;2284086;55;21039;-64
2022/03/01 10:10:10;;;;;;;10.00;6.50;;;12.70;55.50;;;;;;2282802;55;20950;-65
2022/03/01 10:12:38;;;;;;;12.75;7.32;;;12.90;54.60;;;;;;2406609;55;21073;-64
2022/03/01 10:15:07;;;;;;;10.57;7.00;;;13.10;55.00;;;;;;2286253;55;21023;-64
2022/03/01 10:17:39;;;;;;;12.48;7.43;;;13.40;54.60;;;;;;2287235;55;21474;-63
2022/03/01 10:20:18;;;;;;;10.23;7.45;;;13.50;54.00;;;;;;2290704;55;21013;-63
2022/03/01 10:22:46;;;;;;;10.77;7.15;;;13.60;53.50;;;;;;2276768;55;20951;-64
2022/03/01 10:25:14;;;;;;;11.10;7.00;;;13.60;53.90;;;;;;2287342;55;20978;-65
2022/03/01 10:27:42;;;;;;;13.23;7.80;;;13.80;54.00;;;;;;2283555;55;20969;-64
2022/03/01 10:30:10;;;;;;;11.12;7.45;;;13.90;53.80;;;;;;2337828;55;21479;-67
2022/03/01 10:32:36;;;;;;;10.27;7.00;;;14.00;53.90;;;;;;2284110;54;21503;-64
2022/03/01 10:35:07;;;;;;;11.23;7.55;;;14.20;54.30;;;;;;2290686;55;20982;-64
2022/03/01 10:37:37;;;;;;;10.05;7.22;;;14.40;54.40;;;;;;2283394;55;21013;-64
2022/03/01 10:40:31;;;;;;;11.80;7.37;;;14.60;54.10;;;;;;2521112;55;20954;-63
2022/03/01 10:43:09;;;;;;;11.38;7.22;;;14.80;52.50;;;;;;2288621;55;21017;-64
2022/03/01 10:45:38;;;;;;;11.85;7.00;;;14.90;54.00;;;;;;2290417;55;20970;-65
2022/03/01 10:48:05;;;;;;;9.70;6.03;;;15.10;54.00;;;;;;2286798;55;21537;-66
2022/03/01 10:50:32;;;;;;;9.82;6.00;;;15.20;53.40;;;;;;2288693;55;21724;-65
2022/03/01 10:52:59;;;;;;;9.13;6.10;;;15.30;52.60;;;;;;2286632;55;21018;-67
2022/03/01 10:55:30;;;;;;;8.50;5.50;;;15.30;51.80;;;;;;2286465;55;20946;-65
2022/03/01 10:58:02;;;;;;;8.15;5.35;;;15.20;51.00;;;;;;2266609;55;21022;-64
2022/03/01 11:00:29;;;;;;;10.10;6.18;;;15.20;50.70;;;;;;2287490;54;22021;-65
2022/03/01 11:02:55;;;;;;;11.98;6.28;;;15.00;50.20;;;;;;2283880;54;20966;-66
2022/03/01 11:05:22;;;;;;;9.45;6.10;;;14.90;49.90;;;;;;2289371;55;21286;-65
2022/03/01 11:08:01;;;;;;;13.40;7.05;;;14.90;49.80;;;;;;2286660;55;21101;-65
2022/03/01 11:10:28;;;;;;;9.73;6.47;;;14.80;50.00;;;;;;2289198;55;21729;-67
2022/03/01 11:12:55;;;;;;;12.85;7.97;;;14.80;50.30;;;;;;2287488;54;21026;-64
2022/03/01 11:19:11;;;;;;;9.48;6.37;;;14.80;50.10;;;;;;2307143;55;20966;-65
2022/03/01 11:21:41;;;;;;;9.60;5.85;;;14.80;48.70;;;;;;2263832;56;20958;-64
2022/03/01 11:24:11;;;;;;;9.32;5.60;;;14.80;49.40;;;;;;2286976;55;21053;-64
2022/03/01 11:26:37;;;;;;;10.60;5.20;;;14.70;49.30;;;;;;2265122;56;20974;-64
2022/03/01 11:29:11;;;;;;;10.90;6.18;;;14.70;49.40;;;;;;2286815;55;21031;-68
2022/03/01 11:31:38;;;;;;;9.55;5.82;;;14.70;49.00;;;;;;2286445;55;21019;-65
2022/03/01 11:34:15;;;;;;;10.57;6.07;;;14.80;49.50;;;;;;2258148;55;21034;-66
2022/03/01 11:37:01;;;;;;;8.35;5.43;;;14.90;49.40;;;;;;2286176;55;21097;-65
2022/03/01 11:39:29;;;;;;;8.68;5.43;;;15.00;49.00;;;;;;2363675;55;21013;-65
2022/03/01 11:42:14;;;;;;;9.10;5.30;;;15.10;50.20;;;;;;2285531;55;21904;-66
2022/03/01 11:44:41;;;;;;;9.05;5.30;;;15.30;49.10;;;;;;2286309;54;21058;-64
2022/03/01 11:47:21;;;;;;;9.82;5.82;;;15.50;50.50;;;;;;2286410;55;20985;-65
2022/03/01 11:50:20;;;;;;;8.50;5.10;;;15.60;50.30;;;;;;2288320;55;20977;-64
2022/03/01 11:52:53;;;;;;;7.18;4.78;;;15.80;48.90;;;;;;2285838;55;21557;-64
2022/03/01 11:55:20;;;;;;;8.65;5.45;;;16.00;49.20;;;;;;2290324;55;20930;-69
2022/03/01 11:57:47;;;;;;;8.38;5.40;;;16.10;49.40;;;;;;2287703;55;20966;-65
2022/03/01 12:00:18;;;;;;;7.30;4.82;;;16.20;49.60;;;;;;2464451;55;20998;-65
2022/03/01 12:02:45;;;;;;;9.73;6.05;;;16.40;49.50;;;;;;2288431;55;20942;-65
2022/03/01 12:05:22;;;;;;;9.38;6.03;;;16.50;48.60;;;;;;2354084;55;21049;-65
2022/03/01 12:07:50;;;;;;;9.30;5.32;;;16.60;46.70;;;;;;2268516;56;21772;-66
2022/03/01 12:10:25;;;;;;;9.45;5.32;;;16.50;47.10;;;;;;2287929;55;21018;-67
2022/03/01 12:12:55;;;;;;;10.07;5.72;;;16.40;46.70;;;;;;2328403;55;20970;-64
2022/03/01 12:15:32;;;;;;;8.32;5.20;;;16.30;45.80;;;;;;2265066;56;21497;-66
2022/03/01 12:18:15;;;;;;;8.45;4.80;;;16.10;45.10;;;;;;2520990;55;21029;-66
2022/03/01 12:20:44;;;;;;;9.10;4.97;;;16.00;45.00;;;;;;2351034;55;21806;-67
2022/03/01 12:23:11;;;;;;;8.25;4.75;;;15.90;45.90;;;;;;2285867;55;21021;-69
2022/03/01 12:25:40;;;;;;;10.15;5.15;;;15.80;45.90;;;;;;2284558;54;21410;-66
2022/03/01 12:28:07;;;;;;;9.52;5.03;;;15.70;45.60;;;;;;2286478;55;20950;-67
2022/03/01 12:30:38;;;;;;;8.73;5.45;;;15.60;45.60;;;;;;2285405;55;20938;-66
2022/03/01 12:33:13;;;;;;;10.77;5.57;;;15.60;46.30;;;;;;2286905;55;21061;-66
2022/03/01 12:35:41;;;;;;;9.00;5.05;;;15.50;45.90;;;;;;2286790;55;21486;-67
2022/03/01 12:38:11;;;;;;;9.50;5.70;;;15.60;46.80;;;;;;2286599;54;20954;-68
2022/03/01 12:40:38;;;;;;;8.20;5.10;;;15.70;46.70;;;;;;2284580;55;20986;-65
2022/03/01 12:43:10;;;;;;;9.15;5.10;;;15.80;47.00;;;;;;2287987;54;21377;-64
2022/03/01 12:45:44;;;;;;;9.18;5.45;;;15.90;46.60;;;;;;2285156;54;21074;-67
2022/03/01 12:48:15;;;;;;;9.00;5.45;;;16.00;46.80;;;;;;2304534;55;21066;-67
2022/03/01 12:50:49;;;;;;;9.82;5.47;;;16.10;46.80;;;;;;2285368;55;20994;-67
2022/03/01 12:53:15;;;;;;;8.00;4.57;;;16.20;46.60;;;;;;2286676;55;21526;-67
2022/03/01 12:55:46;;;;;;;8.95;4.80;;;16.30;47.10;;;;;;2358929;55;20970;-67
2022/03/01 12:58:20;;;;;;;7.57;4.80;;;16.30;46.70;;;;;;2516513;54;20955;-66
2022/03/01 13:00:49;;;;;;;7.50;4.60;;;16.30;45.90;;;;;;2292680;55;22435;-68
2022/03/01 13:03:29;;;;;;;8.23;4.85;;;16.40;46.80;;;;;;2272713;55;21050;-66
2022/03/01 13:06:11;;;;;;;8.15;5.00;;;16.50;46.00;;;;;;2288479;55;20990;-67
2022/03/01 13:08:38;;;;;;;7.35;4.78;;;16.50;45.70;;;;;;2286908;55;20973;-66
2022/03/01 13:11:08;;;;;;;8.77;5.22;;;16.50;46.20;;;;;;2286484;55;20970;-68
2022/03/01 13:13:51;;;;;;;8.93;5.45;;;16.50;45.70;;;;;;2286451;55;20985;-67
2022/03/01 13:16:22;;;;;;;8.55;5.05;;;16.50;44.20;;;;;;2287179;55;20969;-66
2022/03/01 13:18:53;;;;;;;8.48;4.55;;;16.40;45.30;;;;;;2286588;55;21436;-67
2022/03/01 13:22:12;;;;;;;10.27;4.85;;;16.40;45.00;;;;;;2440680;55;21487;-67
2022/03/01 13:24:47;;;;;;;9.43;5.37;;;16.30;44.10;;;;;;2286624;55;21005;-66
2022/03/01 13:27:18;;;;;;;9.23;4.87;;;16.30;44.50;;;;;;2286885;55;20981;-66
2022/03/01 13:29:44;;;;;;;7.25;4.35;;;16.30;45.10;;;;;;2286618;55;20957;-66
2022/03/01 13:32:23;;;;;;;9.48;5.35;;;16.30;45.40;;;;;;2286153;55;21817;-67
2022/03/01 13:35:01;;;;;;;9.73;4.70;;;16.30;44.40;;;;;;2306795;55;20978;-66
2022/03/01 13:37:27;;;;;;;6.97;4.45;;;16.40;44.80;;;;;;2285637;55;21929;-64
2022/03/01 13:39:56;;;;;;;9.57;4.95;;;16.40;44.90;;;;;;2285601;55;20965;-64